Weather at Nuku Hiva Airport

Public forecast

Using degrees Celsius for public forecast. Weather courtesy of forecast.io.

Closest aviation weather report (METAR) to Nuku Hiva Airport

Closest report is Tongareva Airport, 1,056.0 nm (1,955.7 km) W. Retrieved 2021/10/27 05:00 UTC (22 minutes ago):

NCPY 270500Z AUTO 05010KT //// ////// 28/24 Q1012

Closest aviation forecast (TAF) to Nuku Hiva Airport

Forecast is more than 12 hours old.

Closest forecast is Tongareva Airport, 1,056.0 nm (1,955.7 km) W. Retrieved 2018/02/21 16:17 UTC (4 years ago):

TAF NCPY 211518Z 2116/2205 06012KT 9999 SCT018 BKN100 PROB40 TEMPO 2116/2205 3000 TSRA BKN015 FEW018CB